sensor_id;sensor_type;location;lat;lon;timestamp;P1;durP1;ratioP1;P2;durP2;ratioP2
37445;SDS011;23307;51.136;14.942;2023-07-20T00:01:15;3.30;;;2.80;;
37445;SDS011;23307;51.136;14.942;2023-07-20T00:03:41;3.00;;;2.65;;
37445;SDS011;23307;51.136;14.942;2023-07-20T00:06:06;3.92;;;2.63;;
37445;SDS011;23307;51.136;14.942;2023-07-20T00:08:32;4.88;;;3.15;;
37445;SDS011;23307;51.136;14.942;2023-07-20T00:10:58;4.82;;;2.50;;
37445;SDS011;23307;51.136;14.942;2023-07-20T00:13:23;3.17;;;2.50;;
37445;SDS011;23307;51.136;14.942;2023-07-20T00:15:49;3.15;;;2.58;;
37445;SDS011;23307;51.136;14.942;2023-07-20T00:18:15;3.20;;;2.40;;
37445;SDS011;23307;51.136;14.942;2023-07-20T00:20:41;4.40;;;2.80;;
37445;SDS011;23307;51.136;14.942;2023-07-20T00:23:06;2.60;;;2.40;;
37445;SDS011;23307;51.136;14.942;2023-07-20T00:25:32;4.00;;;2.78;;
37445;SDS011;23307;51.136;14.942;2023-07-20T00:27:58;3.08;;;2.67;;
37445;SDS011;23307;51.136;14.942;2023-07-20T00:30:24;3.80;;;2.50;;
37445;SDS011;23307;51.136;14.942;2023-07-20T00:32:49;4.57;;;2.78;;
37445;SDS011;23307;51.136;14.942;2023-07-20T00:35:15;3.40;;;2.90;;
37445;SDS011;23307;51.136;14.942;2023-07-20T00:37:40;3.05;;;2.72;;
37445;SDS011;23307;51.136;14.942;2023-07-20T00:40:06;4.30;;;3.20;;
37445;SDS011;23307;51.136;14.942;2023-07-20T00:42:34;7.25;;;3.17;;
37445;SDS011;23307;51.136;14.942;2023-07-20T00:45:00;3.63;;;3.10;;
37445;SDS011;23307;51.136;14.942;2023-07-20T00:47:26;6.25;;;3.17;;
37445;SDS011;23307;51.136;14.942;2023-07-20T00:49:52;5.05;;;3.00;;
37445;SDS011;23307;51.136;14.942;2023-07-20T00:52:18;4.57;;;3.47;;
37445;SDS011;23307;51.136;14.942;2023-07-20T00:54:46;4.78;;;2.97;;
37445;SDS011;23307;51.136;14.942;2023-07-20T00:57:13;3.78;;;2.88;;
37445;SDS011;23307;51.136;14.942;2023-07-20T00:59:40;4.97;;;2.95;;
37445;SDS011;23307;51.136;14.942;2023-07-20T01:02:06;5.18;;;3.35;;
37445;SDS011;23307;51.136;14.942;2023-07-20T01:04:32;5.18;;;3.58;;
37445;SDS011;23307;51.136;14.942;2023-07-20T01:06:59;5.88;;;3.95;;
37445;SDS011;23307;51.136;14.942;2023-07-20T01:10:01;8.57;;;3.65;;
37445;SDS011;23307;51.136;14.942;2023-07-20T01:12:42;5.47;;;4.20;;
37445;SDS011;23307;51.136;14.942;2023-07-20T01:15:08;6.43;;;4.07;;
37445;SDS011;23307;51.136;14.942;2023-07-20T01:17:35;7.50;;;4.75;;
37445;SDS011;23307;51.136;14.942;2023-07-20T01:20:01;6.20;;;4.78;;
37445;SDS011;23307;51.136;14.942;2023-07-20T01:31:16;8.25;;;4.80;;
37445;SDS011;23307;51.136;14.942;2023-07-20T01:33:47;6.28;;;4.78;;
37445;SDS011;23307;51.136;14.942;2023-07-20T01:36:16;7.43;;;5.05;;
37445;SDS011;23307;51.136;14.942;2023-07-20T01:38:44;7.65;;;4.90;;
37445;SDS011;23307;51.136;14.942;2023-07-20T01:41:10;6.47;;;4.75;;
37445;SDS011;23307;51.136;14.942;2023-07-20T01:43:36;5.47;;;4.43;;
37445;SDS011;23307;51.136;14.942;2023-07-20T01:46:02;7.47;;;4.65;;
37445;SDS011;23307;51.136;14.942;2023-07-20T01:48:27;10.02;;;4.82;;
37445;SDS011;23307;51.136;14.942;2023-07-20T01:50:53;5.50;;;4.60;;
37445;SDS011;23307;51.136;14.942;2023-07-20T01:53:19;6.72;;;4.53;;
37445;SDS011;23307;51.136;14.942;2023-07-20T01:55:45;6.65;;;4.20;;
37445;SDS011;23307;51.136;14.942;2023-07-20T01:58:11;5.78;;;4.53;;
37445;SDS011;23307;51.136;14.942;2023-07-20T02:00:37;6.82;;;4.78;;
37445;SDS011;23307;51.136;14.942;2023-07-20T02:03:02;5.97;;;4.35;;
37445;SDS011;23307;51.136;14.942;2023-07-20T02:05:28;8.02;;;4.60;;
37445;SDS011;23307;51.136;14.942;2023-07-20T02:07:53;6.75;;;5.00;;
37445;SDS011;23307;51.136;14.942;2023-07-20T02:10:19;10.43;;;4.43;;
37445;SDS011;23307;51.136;14.942;2023-07-20T02:12:45;8.48;;;4.93;;
37445;SDS011;23307;51.136;14.942;2023-07-20T02:15:10;5.50;;;4.25;;
37445;SDS011;23307;51.136;14.942;2023-07-20T02:17:38;7.55;;;4.30;;
37445;SDS011;23307;51.136;14.942;2023-07-20T02:20:06;6.20;;;4.38;;
37445;SDS011;23307;51.136;14.942;2023-07-20T02:22:33;5.75;;;4.63;;
37445;SDS011;23307;51.136;14.942;2023-07-20T02:24:59;9.93;;;4.47;;
37445;SDS011;23307;51.136;14.942;2023-07-20T02:27:25;12.05;;;4.50;;
37445;SDS011;23307;51.136;14.942;2023-07-20T02:29:50;9.48;;;4.85;;
37445;SDS011;23307;51.136;14.942;2023-07-20T02:32:16;9.75;;;4.90;;
37445;SDS011;23307;51.136;14.942;2023-07-20T02:34:41;7.30;;;4.63;;
37445;SDS011;23307;51.136;14.942;2023-07-20T02:37:07;11.02;;;5.10;;
37445;SDS011;23307;51.136;14.942;2023-07-20T02:39:33;8.18;;;5.20;;
37445;SDS011;23307;51.136;14.942;2023-07-20T02:41:59;8.48;;;4.90;;
37445;SDS011;23307;51.136;14.942;2023-07-20T02:44:24;5.78;;;4.70;;
37445;SDS011;23307;51.136;14.942;2023-07-20T02:46:49;7.38;;;4.90;;
37445;SDS011;23307;51.136;14.942;2023-07-20T02:49:15;6.78;;;4.95;;
37445;SDS011;23307;51.136;14.942;2023-07-20T02:51:41;9.80;;;5.10;;
37445;SDS011;23307;51.136;14.942;2023-07-20T02:54:07;9.88;;;5.22;;
37445;SDS011;23307;51.136;14.942;2023-07-20T02:56:33;10.48;;;5.15;;
37445;SDS011;23307;51.136;14.942;2023-07-20T02:58:58;6.50;;;5.45;;
37445;SDS011;23307;51.136;14.942;2023-07-20T03:01:25;6.55;;;4.97;;
37445;SDS011;23307;51.136;14.942;2023-07-20T03:03:54;7.32;;;5.05;;
37445;SDS011;23307;51.136;14.942;2023-07-20T03:06:20;7.00;;;4.97;;
37445;SDS011;23307;51.136;14.942;2023-07-20T03:08:45;6.97;;;4.78;;
37445;SDS011;23307;51.136;14.942;2023-07-20T03:11:17;8.50;;;4.78;;
37445;SDS011;23307;51.136;14.942;2023-07-20T03:13:43;5.25;;;4.60;;
37445;SDS011;23307;51.136;14.942;2023-07-20T03:16:14;8.30;;;4.95;;
37445;SDS011;23307;51.136;14.942;2023-07-20T03:18:44;8.15;;;5.15;;
37445;SDS011;23307;51.136;14.942;2023-07-20T03:21:10;7.65;;;4.60;;
37445;SDS011;23307;51.136;14.942;2023-07-20T03:23:36;6.20;;;4.90;;
37445;SDS011;23307;51.136;14.942;2023-07-20T03:26:02;6.25;;;4.68;;
37445;SDS011;23307;51.136;14.942;2023-07-20T03:28:28;9.23;;;4.55;;
37445;SDS011;23307;51.136;14.942;2023-07-20T03:30:54;5.03;;;4.47;;
37445;SDS011;23307;51.136;14.942;2023-07-20T03:33:24;7.63;;;4.28;;
37445;SDS011;23307;51.136;14.942;2023-07-20T03:35:51;7.78;;;4.28;;
37445;SDS011;23307;51.136;14.942;2023-07-20T03:38:17;6.35;;;4.60;;
37445;SDS011;23307;51.136;14.942;2023-07-20T03:40:52;6.35;;;4.15;;
37445;SDS011;23307;51.136;14.942;2023-07-20T03:43:25;7.55;;;3.90;;
37445;SDS011;23307;51.136;14.942;2023-07-20T03:45:52;6.07;;;4.07;;
37445;SDS011;23307;51.136;14.942;2023-07-20T03:48:19;4.22;;;3.80;;
37445;SDS011;23307;51.136;14.942;2023-07-20T03:50:46;7.28;;;4.07;;
37445;SDS011;23307;51.136;14.942;2023-07-20T03:53:13;6.00;;;3.95;;
37445;SDS011;23307;51.136;14.942;2023-07-20T03:55:40;5.80;;;3.65;;
37445;SDS011;23307;51.136;14.942;2023-07-20T03:58:06;6.68;;;3.65;;
37445;SDS011;23307;51.136;14.942;2023-07-20T04:00:33;4.25;;;3.65;;
37445;SDS011;23307;51.136;14.942;2023-07-20T04:02:59;3.90;;;3.53;;
37445;SDS011;23307;51.136;14.942;2023-07-20T04:05:58;5.90;;;3.50;;
37445;SDS011;23307;51.136;14.942;2023-07-20T04:08:18;4.93;;;3.60;;
37445;SDS011;23307;51.136;14.942;2023-07-20T04:10:43;6.63;;;3.78;;
37445;SDS011;23307;51.136;14.942;2023-07-20T04:13:09;5.80;;;3.65;;
37445;SDS011;23307;51.136;14.942;2023-07-20T04:15:35;5.25;;;3.25;;
37445;SDS011;23307;51.136;14.942;2023-07-20T04:18:00;6.55;;;3.45;;
37445;SDS011;23307;51.136;14.942;2023-07-20T04:20:26;7.05;;;3.53;;
37445;SDS011;23307;51.136;14.942;2023-07-20T04:22:51;6.75;;;3.33;;
37445;SDS011;23307;51.136;14.942;2023-07-20T04:25:17;3.60;;;3.22;;
37445;SDS011;23307;51.136;14.942;2023-07-20T04:27:43;4.22;;;3.40;;
37445;SDS011;23307;51.136;14.942;2023-07-20T04:30:09;4.35;;;3.30;;
37445;SDS011;23307;51.136;14.942;2023-07-20T04:32:36;6.65;;;3.65;;
37445;SDS011;23307;51.136;14.942;2023-07-20T04:35:05;7.50;;;3.30;;
37445;SDS011;23307;51.136;14.942;2023-07-20T04:37:32;4.78;;;3.50;;
37445;SDS011;23307;51.136;14.942;2023-07-20T04:39:57;6.03;;;3.17;;
37445;SDS011;23307;51.136;14.942;2023-07-20T04:42:23;5.43;;;3.13;;
37445;SDS011;23307;51.136;14.942;2023-07-20T04:44:48;6.65;;;3.65;;
37445;SDS011;23307;51.136;14.942;2023-07-20T04:47:14;7.90;;;3.17;;
37445;SDS011;23307;51.136;14.942;2023-07-20T04:49:39;6.70;;;3.20;;
37445;SDS011;23307;51.136;14.942;2023-07-20T04:52:05;4.60;;;3.17;;
37445;SDS011;23307;51.136;14.942;2023-07-20T04:54:31;7.30;;;3.40;;
37445;SDS011;23307;51.136;14.942;2023-07-20T04:56:56;7.65;;;3.28;;
37445;SDS011;23307;51.136;14.942;2023-07-20T04:59:22;3.92;;;3.15;;
37445;SDS011;23307;51.136;14.942;2023-07-20T05:01:47;4.85;;;2.95;;
37445;SDS011;23307;51.136;14.942;2023-07-20T05:04:13;5.97;;;3.30;;
37445;SDS011;23307;51.136;14.942;2023-07-20T05:06:38;5.05;;;3.65;;
37445;SDS011;23307;51.136;14.942;2023-07-20T05:09:04;6.90;;;3.30;;
37445;SDS011;23307;51.136;14.942;2023-07-20T05:11:31;4.68;;;2.97;;
37445;SDS011;23307;51.136;14.942;2023-07-20T05:13:57;5.65;;;3.05;;
37445;SDS011;23307;51.136;14.942;2023-07-20T05:16:22;6.57;;;3.38;;
37445;SDS011;23307;51.136;14.942;2023-07-20T05:18:48;10.40;;;3.60;;
37445;SDS011;23307;51.136;14.942;2023-07-20T05:21:13;6.20;;;3.08;;
37445;SDS011;23307;51.136;14.942;2023-07-20T05:23:39;5.45;;;3.35;;
37445;SDS011;23307;51.136;14.942;2023-07-20T05:26:04;4.47;;;3.70;;
37445;SDS011;23307;51.136;14.942;2023-07-20T05:28:31;4.97;;;3.80;;
37445;SDS011;23307;51.136;14.942;2023-07-20T05:30:56;6.45;;;3.95;;
37445;SDS011;23307;51.136;14.942;2023-07-20T05:33:24;6.38;;;4.28;;
37445;SDS011;23307;51.136;14.942;2023-07-20T05:35:50;5.47;;;4.30;;
37445;SDS011;23307;51.136;14.942;2023-07-20T05:38:15;4.78;;;4.28;;
37445;SDS011;23307;51.136;14.942;2023-07-20T05:40:41;7.85;;;4.20;;
37445;SDS011;23307;51.136;14.942;2023-07-20T05:43:07;6.82;;;3.58;;
37445;SDS011;23307;51.136;14.942;2023-07-20T05:45:33;5.47;;;3.83;;
37445;SDS011;23307;51.136;14.942;2023-07-20T05:47:59;5.43;;;4.00;;
37445;SDS011;23307;51.136;14.942;2023-07-20T05:50:24;4.68;;;4.10;;
37445;SDS011;23307;51.136;14.942;2023-07-20T05:52:52;4.97;;;4.00;;
37445;SDS011;23307;51.136;14.942;2023-07-20T05:55:18;5.55;;;4.18;;
37445;SDS011;23307;51.136;14.942;2023-07-20T05:57:44;6.82;;;3.80;;
37445;SDS011;23307;51.136;14.942;2023-07-20T06:00:10;6.22;;;4.03;;
37445;SDS011;23307;51.136;14.942;2023-07-20T06:02:37;4.38;;;3.97;;
37445;SDS011;23307;51.136;14.942;2023-07-20T06:05:03;6.57;;;4.07;;
37445;SDS011;23307;51.136;14.942;2023-07-20T06:07:29;6.00;;;3.70;;
37445;SDS011;23307;51.136;14.942;2023-07-20T06:09:54;4.40;;;4.00;;
37445;SDS011;23307;51.136;14.942;2023-07-20T06:12:20;6.47;;;3.90;;
37445;SDS011;23307;51.136;14.942;2023-07-20T06:14:45;6.30;;;3.80;;
37445;SDS011;23307;51.136;14.942;2023-07-20T06:17:11;6.38;;;4.25;;
37445;SDS011;23307;51.136;14.942;2023-07-20T06:19:37;6.88;;;4.30;;
37445;SDS011;23307;51.136;14.942;2023-07-20T06:22:02;5.35;;;3.92;;
37445;SDS011;23307;51.136;14.942;2023-07-20T06:24:28;6.90;;;3.78;;
37445;SDS011;23307;51.136;14.942;2023-07-20T06:26:54;5.38;;;3.63;;
37445;SDS011;23307;51.136;14.942;2023-07-20T06:29:19;5.53;;;3.67;;
37445;SDS011;23307;51.136;14.942;2023-07-20T06:31:45;5.25;;;3.88;;
37445;SDS011;23307;51.136;14.942;2023-07-20T06:34:10;5.47;;;3.70;;
37445;SDS011;23307;51.136;14.942;2023-07-20T06:36:36;6.07;;;3.20;;
37445;SDS011;23307;51.136;14.942;2023-07-20T06:39:01;5.80;;;3.78;;
37445;SDS011;23307;51.136;14.942;2023-07-20T06:41:28;4.10;;;3.70;;
37445;SDS011;23307;51.136;14.942;2023-07-20T06:43:54;4.88;;;3.20;;
37445;SDS011;23307;51.136;14.942;2023-07-20T06:46:23;3.83;;;3.08;;
37445;SDS011;23307;51.136;14.942;2023-07-20T06:48:51;4.15;;;3.38;;
37445;SDS011;23307;51.136;14.942;2023-07-20T06:51:18;6.05;;;3.83;;
37445;SDS011;23307;51.136;14.942;2023-07-20T06:53:44;4.97;;;4.10;;
37445;SDS011;23307;51.136;14.942;2023-07-20T06:56:10;4.45;;;4.05;;
37445;SDS011;23307;51.136;14.942;2023-07-20T06:58:36;4.93;;;3.88;;
37445;SDS011;23307;51.136;14.942;2023-07-20T07:01:05;5.65;;;4.22;;
37445;SDS011;23307;51.136;14.942;2023-07-20T07:03:31;6.15;;;4.18;;
37445;SDS011;23307;51.136;14.942;2023-07-20T07:05:57;5.55;;;3.83;;
37445;SDS011;23307;51.136;14.942;2023-07-20T07:08:23;3.88;;;3.55;;
37445;SDS011;23307;51.136;14.942;2023-07-20T07:10:48;4.30;;;3.42;;
37445;SDS011;23307;51.136;14.942;2023-07-20T07:13:15;4.03;;;3.60;;
37445;SDS011;23307;51.136;14.942;2023-07-20T07:15:41;6.03;;;3.60;;
37445;SDS011;23307;51.136;14.942;2023-07-20T07:18:07;5.78;;;4.22;;
37445;SDS011;23307;51.136;14.942;2023-07-20T07:20:33;4.85;;;4.07;;
37445;SDS011;23307;51.136;14.942;2023-07-20T07:22:58;5.20;;;4.30;;
37445;SDS011;23307;51.136;14.942;2023-07-20T07:25:24;5.30;;;4.45;;
37445;SDS011;23307;51.136;14.942;2023-07-20T07:27:49;7.07;;;4.60;;
37445;SDS011;23307;51.136;14.942;2023-07-20T07:30:17;7.55;;;4.43;;
37445;SDS011;23307;51.136;14.942;2023-07-20T07:32:42;5.05;;;4.55;;
37445;SDS011;23307;51.136;14.942;2023-07-20T07:35:08;5.88;;;3.90;;
37445;SDS011;23307;51.136;14.942;2023-07-20T07:37:34;4.53;;;3.65;;
37445;SDS011;23307;51.136;14.942;2023-07-20T07:40:00;7.65;;;4.03;;
37445;SDS011;23307;51.136;14.942;2023-07-20T07:42:25;4.38;;;3.90;;
37445;SDS011;23307;51.136;14.942;2023-07-20T07:44:51;4.57;;;3.10;;
37445;SDS011;23307;51.136;14.942;2023-07-20T07:47:16;3.20;;;2.40;;
37445;SDS011;23307;51.136;14.942;2023-07-20T07:49:42;3.15;;;2.45;;
37445;SDS011;23307;51.136;14.942;2023-07-20T07:52:07;5.38;;;3.45;;
37445;SDS011;23307;51.136;14.942;2023-07-20T07:54:33;6.43;;;3.40;;
37445;SDS011;23307;51.136;14.942;2023-07-20T07:56:58;5.63;;;3.60;;
37445;SDS011;23307;51.136;14.942;2023-07-20T07:59:24;3.70;;;3.22;;
37445;SDS011;23307;51.136;14.942;2023-07-20T08:01:50;2.95;;;2.75;;
37445;SDS011;23307;51.136;14.942;2023-07-20T08:04:15;5.30;;;3.10;;
37445;SDS011;23307;51.136;14.942;2023-07-20T08:06:41;2.70;;;2.47;;
37445;SDS011;23307;51.136;14.942;2023-07-20T08:09:06;4.63;;;2.63;;
37445;SDS011;23307;51.136;14.942;2023-07-20T08:11:32;3.83;;;2.63;;
37445;SDS011;23307;51.136;14.942;2023-07-20T08:13:59;2.85;;;2.40;;
37445;SDS011;23307;51.136;14.942;2023-07-20T08:16:25;4.43;;;3.03;;
37445;SDS011;23307;51.136;14.942;2023-07-20T08:18:51;2.88;;;2.65;;
37445;SDS011;23307;51.136;14.942;2023-07-20T08:21:16;3.03;;;2.72;;
37445;SDS011;23307;51.136;14.942;2023-07-20T08:23:42;5.10;;;2.60;;
37445;SDS011;23307;51.136;14.942;2023-07-20T08:26:08;2.85;;;2.45;;
37445;SDS011;23307;51.136;14.942;2023-07-20T08:28:33;2.83;;;2.53;;
37445;SDS011;23307;51.136;14.942;2023-07-20T08:30:59;3.00;;;2.70;;
37445;SDS011;23307;51.136;14.942;2023-07-20T08:33:25;2.58;;;2.38;;
37445;SDS011;23307;51.136;14.942;2023-07-20T08:35:50;2.78;;;2.42;;
37445;SDS011;23307;51.136;14.942;2023-07-20T08:38:16;6.20;;;3.17;;
37445;SDS011;23307;51.136;14.942;2023-07-20T08:40:42;4.90;;;2.90;;
37445;SDS011;23307;51.136;14.942;2023-07-20T08:43:12;3.00;;;2.80;;
37445;SDS011;23307;51.136;14.942;2023-07-20T08:45:39;6.05;;;3.03;;
37445;SDS011;23307;51.136;14.942;2023-07-20T08:48:06;5.10;;;2.97;;
37445;SDS011;23307;51.136;14.942;2023-07-20T08:50:32;5.45;;;3.35;;
37445;SDS011;23307;51.136;14.942;2023-07-20T08:52:59;3.95;;;3.60;;
37445;SDS011;23307;51.136;14.942;2023-07-20T08:55:26;3.97;;;3.60;;
37445;SDS011;23307;51.136;14.942;2023-07-20T08:57:54;4.05;;;3.63;;
37445;SDS011;23307;51.136;14.942;2023-07-20T09:00:21;6.35;;;3.30;;
37445;SDS011;23307;51.136;14.942;2023-07-20T09:02:48;5.70;;;3.33;;
37445;SDS011;23307;51.136;14.942;2023-07-20T09:05:16;2.88;;;2.38;;
37445;SDS011;23307;51.136;14.942;2023-07-20T09:07:42;4.43;;;2.80;;
37445;SDS011;23307;51.136;14.942;2023-07-20T09:10:08;2.47;;;2.28;;
37445;SDS011;23307;51.136;14.942;2023-07-20T09:12:35;2.70;;;2.47;;
37445;SDS011;23307;51.136;14.942;2023-07-20T09:15:01;3.05;;;2.75;;
37445;SDS011;23307;51.136;14.942;2023-07-20T09:17:27;3.47;;;3.00;;
37445;SDS011;23307;51.136;14.942;2023-07-20T09:19:52;3.88;;;3.58;;
37445;SDS011;23307;51.136;14.942;2023-07-20T09:22:18;3.20;;;2.97;;
37445;SDS011;23307;51.136;14.942;2023-07-20T09:24:44;3.50;;;3.20;;
37445;SDS011;23307;51.136;14.942;2023-07-20T09:27:10;4.38;;;3.72;;
37445;SDS011;23307;51.136;14.942;2023-07-20T09:29:48;3.75;;;3.45;;
37445;SDS011;23307;51.136;14.942;2023-07-20T09:32:17;4.65;;;3.72;;
37445;SDS011;23307;51.136;14.942;2023-07-20T09:34:45;4.40;;;3.05;;
37445;SDS011;23307;51.136;14.942;2023-07-20T09:37:11;3.65;;;2.80;;
37445;SDS011;23307;51.136;14.942;2023-07-20T09:39:43;3.50;;;3.20;;
37445;SDS011;23307;51.136;14.942;2023-07-20T09:42:12;4.15;;;3.70;;
37445;SDS011;23307;51.136;14.942;2023-07-20T09:44:38;4.13;;;3.17;;
37445;SDS011;23307;51.136;14.942;2023-07-20T09:47:05;4.32;;;3.22;;
37445;SDS011;23307;51.136;14.942;2023-07-20T09:49:30;6.32;;;3.22;;
37445;SDS011;23307;51.136;14.942;2023-07-20T09:51:57;4.22;;;3.10;;
37445;SDS011;23307;51.136;14.942;2023-07-20T09:54:25;4.28;;;3.13;;
37445;SDS011;23307;51.136;14.942;2023-07-20T09:56:53;3.42;;;3.13;;
37445;SDS011;23307;51.136;14.942;2023-07-20T09:59:19;3.72;;;3.42;;
37445;SDS011;23307;51.136;14.942;2023-07-20T10:01:45;3.40;;;3.20;;
37445;SDS011;23307;51.136;14.942;2023-07-20T10:04:12;3.90;;;3.55;;
37445;SDS011;23307;51.136;14.942;2023-07-20T10:06:39;4.00;;;3.60;;
37445;SDS011;23307;51.136;14.942;2023-07-20T10:09:07;6.13;;;3.45;;
37445;SDS011;23307;51.136;14.942;2023-07-20T10:11:36;4.32;;;3.53;;
37445;SDS011;23307;51.136;14.942;2023-07-20T10:14:08;4.18;;;3.75;;
37445;SDS011;23307;51.136;14.942;2023-07-20T10:16:39;5.35;;;3.92;;
37445;SDS011;23307;51.136;14.942;2023-07-20T10:21:51;5.47;;;3.25;;
37445;SDS011;23307;51.136;14.942;2023-07-20T10:24:26;5.28;;;3.20;;
37445;SDS011;23307;51.136;14.942;2023-07-20T10:26:53;4.15;;;2.83;;
37445;SDS011;23307;51.136;14.942;2023-07-20T10:29:20;5.03;;;3.20;;
37445;SDS011;23307;51.136;14.942;2023-07-20T10:31:46;4.40;;;3.53;;
37445;SDS011;23307;51.136;14.942;2023-07-20T10:34:13;4.85;;;3.20;;
37445;SDS011;23307;51.136;14.942;2023-07-20T10:36:45;4.72;;;3.58;;
37445;SDS011;23307;51.136;14.942;2023-07-20T10:39:21;4.68;;;3.72;;
37445;SDS011;23307;51.136;14.942;2023-07-20T10:42:08;4.03;;;3.72;;
37445;SDS011;23307;51.136;14.942;2023-07-20T10:44:38;4.40;;;2.90;;
37445;SDS011;23307;51.136;14.942;2023-07-20T10:47:08;5.07;;;3.03;;
37445;SDS011;23307;51.136;14.942;2023-07-20T10:49:57;4.32;;;2.97;;
37445;SDS011;23307;51.136;14.942;2023-07-20T10:52:22;3.05;;;2.75;;
37445;SDS011;23307;51.136;14.942;2023-07-20T10:54:48;4.18;;;3.08;;
37445;SDS011;23307;51.136;14.942;2023-07-20T10:57:21;4.22;;;3.08;;
37445;SDS011;23307;51.136;14.942;2023-07-20T11:00:08;4.70;;;3.25;;
37445;SDS011;23307;51.136;14.942;2023-07-20T11:02:44;4.38;;;3.22;;
37445;SDS011;23307;51.136;14.942;2023-07-20T11:08:00;3.15;;;2.85;;
37445;SDS011;23307;51.136;14.942;2023-07-20T11:10:27;4.75;;;2.88;;
37445;SDS011;23307;51.136;14.942;2023-07-20T11:15:44;3.15;;;2.65;;
37445;SDS011;23307;51.136;14.942;2023-07-20T11:18:26;3.22;;;2.25;;
37445;SDS011;23307;51.136;14.942;2023-07-20T11:20:51;2.38;;;2.17;;
37445;SDS011;23307;51.136;14.942;2023-07-20T11:23:19;2.20;;;2.00;;
37445;SDS011;23307;51.136;14.942;2023-07-20T11:25:45;2.53;;;2.08;;
37445;SDS011;23307;51.136;14.942;2023-07-20T11:28:11;3.05;;;2.30;;
37445;SDS011;23307;51.136;14.942;2023-07-20T11:30:37;3.30;;;2.22;;
37445;SDS011;23307;51.136;14.942;2023-07-20T11:33:04;2.70;;;2.28;;
37445;SDS011;23307;51.136;14.942;2023-07-20T11:35:30;3.13;;;2.28;;
37445;SDS011;23307;51.136;14.942;2023-07-20T11:37:59;2.38;;;2.17;;
37445;SDS011;23307;51.136;14.942;2023-07-20T11:40:25;5.07;;;2.40;;
37445;SDS011;23307;51.136;14.942;2023-07-20T11:42:50;4.22;;;2.25;;
37445;SDS011;23307;51.136;14.942;2023-07-20T11:45:16;2.47;;;1.90;;
37445;SDS011;23307;51.136;14.942;2023-07-20T11:47:43;3.22;;;2.38;;
37445;SDS011;23307;51.136;14.942;2023-07-20T11:50:09;2.50;;;2.30;;
37445;SDS011;23307;51.136;14.942;2023-07-20T11:52:35;2.30;;;2.10;;
37445;SDS011;23307;51.136;14.942;2023-07-20T11:55:01;2.13;;;1.92;;
37445;SDS011;23307;51.136;14.942;2023-07-20T11:57:28;2.13;;;1.98;;
37445;SDS011;23307;51.136;14.942;2023-07-20T11:59:57;2.45;;;2.20;;
37445;SDS011;23307;51.136;14.942;2023-07-20T12:02:27;2.25;;;2.05;;
37445;SDS011;23307;51.136;14.942;2023-07-20T12:04:53;2.97;;;2.00;;
37445;SDS011;23307;51.136;14.942;2023-07-20T12:07:19;1.92;;;1.73;;
37445;SDS011;23307;51.136;14.942;2023-07-20T12:10:02;1.77;;;1.60;;
37445;SDS011;23307;51.136;14.942;2023-07-20T12:12:39;1.70;;;1.60;;
37445;SDS011;23307;51.136;14.942;2023-07-20T12:17:45;2.53;;;1.48;;
37445;SDS011;23307;51.136;14.942;2023-07-20T12:20:12;2.55;;;1.50;;
37445;SDS011;23307;51.136;14.942;2023-07-20T12:22:38;1.50;;;1.40;;
37445;SDS011;23307;51.136;14.942;2023-07-20T12:25:08;1.45;;;1.35;;
37445;SDS011;23307;51.136;14.942;2023-07-20T12:27:37;2.30;;;1.52;;
37445;SDS011;23307;51.136;14.942;2023-07-20T12:30:03;2.60;;;1.30;;
37445;SDS011;23307;51.136;14.942;2023-07-20T12:32:32;1.30;;;1.20;;
37445;SDS011;23307;51.136;14.942;2023-07-20T12:34:58;3.25;;;1.15;;
37445;SDS011;23307;51.136;14.942;2023-07-20T12:37:25;1.08;;;0.98;;
37445;SDS011;23307;51.136;14.942;2023-07-20T12:39:51;2.20;;;1.30;;
37445;SDS011;23307;51.136;14.942;2023-07-20T12:42:17;3.50;;;1.38;;
37445;SDS011;23307;51.136;14.942;2023-07-20T12:44:43;1.10;;;1.00;;
37445;SDS011;23307;51.136;14.942;2023-07-20T12:47:08;3.15;;;1.17;;
37445;SDS011;23307;51.136;14.942;2023-07-20T12:49:34;1.40;;;1.00;;
37445;SDS011;23307;51.136;14.942;2023-07-20T12:51:59;1.20;;;1.00;;
37445;SDS011;23307;51.136;14.942;2023-07-20T12:54:25;1.85;;;1.40;;
37445;SDS011;23307;51.136;14.942;2023-07-20T12:56:50;1.83;;;1.08;;
37445;SDS011;23307;51.136;14.942;2023-07-20T12:59:16;3.50;;;1.17;;
37445;SDS011;23307;51.136;14.942;2023-07-20T13:01:41;1.33;;;1.17;;
37445;SDS011;23307;51.136;14.942;2023-07-20T13:04:08;1.63;;;1.17;;
37445;SDS011;23307;51.136;14.942;2023-07-20T13:06:35;1.77;;;1.20;;
37445;SDS011;23307;51.136;14.942;2023-07-20T13:09:00;1.17;;;1.08;;
37445;SDS011;23307;51.136;14.942;2023-07-20T13:11:26;1.63;;;0.93;;
37445;SDS011;23307;51.136;14.942;2023-07-20T13:13:52;1.33;;;0.90;;
37445;SDS011;23307;51.136;14.942;2023-07-20T13:16:17;3.38;;;1.02;;
37445;SDS011;23307;51.136;14.942;2023-07-20T13:18:42;1.17;;;1.08;;
37445;SDS011;23307;51.136;14.942;2023-07-20T13:21:08;1.15;;;1.05;;
37445;SDS011;23307;51.136;14.942;2023-07-20T13:23:36;2.70;;;1.10;;
37445;SDS011;23307;51.136;14.942;2023-07-20T13:26:02;1.55;;;1.00;;
37445;SDS011;23307;51.136;14.942;2023-07-20T13:28:29;1.83;;;1.40;;
37445;SDS011;23307;51.136;14.942;2023-07-20T13:30:54;2.88;;;1.10;;
37445;SDS011;23307;51.136;14.942;2023-07-20T13:33:20;3.00;;;1.40;;
37445;SDS011;23307;51.136;14.942;2023-07-20T13:35:46;3.10;;;1.60;;
37445;SDS011;23307;51.136;14.942;2023-07-20T13:38:11;1.52;;;1.40;;
37445;SDS011;23307;51.136;14.942;2023-07-20T13:40:37;4.55;;;2.13;;
37445;SDS011;23307;51.136;14.942;2023-07-20T13:43:03;2.58;;;1.90;;
37445;SDS011;23307;51.136;14.942;2023-07-20T13:45:28;2.55;;;1.88;;
37445;SDS011;23307;51.136;14.942;2023-07-20T13:47:54;3.35;;;1.70;;
37445;SDS011;23307;51.136;14.942;2023-07-20T13:50:19;5.05;;;2.05;;
37445;SDS011;23307;51.136;14.942;2023-07-20T13:52:45;5.10;;;2.42;;
37445;SDS011;23307;51.136;14.942;2023-07-20T13:55:11;2.55;;;2.35;;
37445;SDS011;23307;51.136;14.942;2023-07-20T13:57:36;2.45;;;2.30;;
37445;SDS011;23307;51.136;14.942;2023-07-20T14:00:05;2.60;;;2.40;;
37445;SDS011;23307;51.136;14.942;2023-07-20T14:02:33;3.03;;;2.72;;
37445;SDS011;23307;51.136;14.942;2023-07-20T14:04:58;3.25;;;2.63;;
37445;SDS011;23307;51.136;14.942;2023-07-20T14:07:24;3.60;;;2.97;;
37445;SDS011;23307;51.136;14.942;2023-07-20T14:09:50;2.88;;;2.67;;
37445;SDS011;23307;51.136;14.942;2023-07-20T14:12:15;2.88;;;2.40;;
37445;SDS011;23307;51.136;14.942;2023-07-20T14:14:44;3.15;;;2.45;;
37445;SDS011;23307;51.136;14.942;2023-07-20T14:17:10;2.50;;;2.28;;
37445;SDS011;23307;51.136;14.942;2023-07-20T14:19:37;2.30;;;2.08;;
37445;SDS011;23307;51.136;14.942;2023-07-20T14:22:02;2.83;;;2.30;;
37445;SDS011;23307;51.136;14.942;2023-07-20T14:24:28;2.42;;;2.22;;
37445;SDS011;23307;51.136;14.942;2023-07-20T14:26:54;2.08;;;1.98;;
37445;SDS011;23307;51.136;14.942;2023-07-20T14:29:20;2.05;;;1.88;;
37445;SDS011;23307;51.136;14.942;2023-07-20T14:31:46;2.10;;;1.88;;
37445;SDS011;23307;51.136;14.942;2023-07-20T14:34:16;2.65;;;1.63;;
37445;SDS011;23307;51.136;14.942;2023-07-20T14:36:43;2.05;;;1.63;;
37445;SDS011;23307;51.136;14.942;2023-07-20T14:39:09;1.60;;;1.50;;
37445;SDS011;23307;51.136;14.942;2023-07-20T14:41:35;1.98;;;1.60;;
37445;SDS011;23307;51.136;14.942;2023-07-20T14:44:00;1.83;;;1.50;;
37445;SDS011;23307;51.136;14.942;2023-07-20T14:46:26;1.50;;;1.40;;
37445;SDS011;23307;51.136;14.942;2023-07-20T14:48:51;1.60;;;1.50;;
37445;SDS011;23307;51.136;14.942;2023-07-20T14:51:17;1.52;;;1.42;;